Bedworth, United Kingdom
Current Conditions -  °F | °C
As of 2:20 PM on Thursday 30 Oct 2014 (Local Time) from EGBE Reporting Station
Few Clouds Few Clouds  
Wind Chill: 64°   Ceiling: Unl
Heat Index: 64°   Visibility: 6mi
Dew Point: 59°   Wind: 12mph
Humidity: 83%   Direction: 200°SSW
Pressure: 30"   Gusts: NA
Location:  52.48°N, 1.47°W
Report Text: EGBE 301420Z 20010KT 9999 FEW016 18/15 Q1016
Loading
Personal Weather Stations






























Interactive Weather Map
Tropical Storm Tracking
New forecast layout! Learn more

10-Day Weather Forecast

Advertisements
Track Severe Weather on mobile